Centerville, Ohio
Current Conditions -  °F | °C
As of 5:53 PM on Saturday 25 Oct 2014 (Local Time) from KMGY Reporting Station
Haze Haze  
Wind Chill: 73°   Ceiling: Unl
Heat Index: 73°   Visibility: 6mi
Dew Point: 52°   Wind: 7mph
Humidity: 48%   Direction: 250°WSW
Pressure: 29.89"   Gusts: NA
Location:  39.6468°N, 84.1683°W
Report Text: KMGY 252153Z AUTO 25006KT 6SM HZ CLR 23/11 A2989 RMK AO2 SLP118 T02280111
Loading
Personal Weather Stations






























Interactive Weather Map
Tropical Storm Tracking
New forecast layout! Learn more

10-Day Weather Forecast

Advertisements
Track Severe Weather on mobile